Time;durP1;ratioP1;P1;durP2;ratioP2;P2;SDS_P1;SDS_P2;PMS_P1;PMS_P2;Temp;Humidity;BMP_temperature;BMP_pressure;BME280_temperature;BME280_humidity;BME280_pressure;Samples;Min_cycle;Max_cycle;Signal;HPM_P1;HPM_P2
2021/11/04 00:00:29;;;;;;;14.65;8.15;;;;;;;;;;5110051;28;20357;-73
2021/11/04 00:05:27;;;;;;;13.45;7.32;;;;;;;;;;5110744;27;20457;-74
2021/11/04 00:12:01;;;;;;;12.52;7.30;;;;;;;;;;5110903;27;20835;-72
2021/11/04 00:14:47;;;;;;;27.52;9.52;;;;;;;;;;5132128;27;20449;-71
2021/11/04 00:17:13;;;;;;;13.45;8.30;;;;;;;;;;5131613;28;20023;-74
2021/11/04 00:22:41;;;;;;;19.27;9.40;;;;;;;;;;5111842;27;20454;-74
2021/11/04 00:25:07;;;;;;;15.95;9.18;;;;;;;;;;5111103;28;20020;-74
2021/11/04 00:29:39;;;;;;;13.90;8.10;;;;;;;;;;5111100;27;20393;-73
2021/11/04 00:33:20;;;;;;;12.13;7.75;;;;;;;;;;5110984;27;20459;-73
2021/11/04 00:35:46;;;;;;;15.55;8.18;;;;;;;;;;5109667;28;20451;-71
2021/11/04 00:38:13;;;;;;;15.38;8.27;;;;;;;;;;5111168;28;20024;-71
2021/11/04 00:40:39;;;;;;;11.45;7.55;;;;;;;;;;5110700;28;20024;-72
2021/11/04 00:48:04;;;;;;;23.25;8.60;;;;;;;;;;5110689;27;20113;-73
2021/11/04 00:51:57;;;;;;;17.95;8.10;;;;;;;;;;5111283;27;20451;-73
2021/11/04 00:54:23;;;;;;;16.48;8.05;;;;;;;;;;5110690;28;20099;-73
2021/11/04 00:58:07;;;;;;;12.70;6.95;;;;;;;;;;5111139;27;20442;-73
2021/11/04 01:00:33;;;;;;;22.35;8.50;;;;;;;;;;5110593;28;20052;-73
2021/11/04 01:02:59;;;;;;;13.90;8.32;;;;;;;;;;5109656;28;20027;-71
2021/11/04 01:05:25;;;;;;;13.60;7.35;;;;;;;;;;5111096;28;20097;-72
2021/11/04 01:07:52;;;;;;;11.20;6.35;;;;;;;;;;5110719;28;20498;-72
2021/11/04 01:10:18;;;;;;;9.93;6.18;;;;;;;;;;5110864;28;20028;-72
2021/11/04 01:12:46;;;;;;;14.27;6.88;;;;;;;;;;5109534;28;20048;-72
2021/11/04 01:15:12;;;;;;;10.70;6.57;;;;;;;;;;5110501;28;20069;-72
2021/11/04 01:19:33;;;;;;;12.82;6.93;;;;;;;;;;5111753;27;20442;-71
2021/11/04 01:21:59;;;;;;;12.60;6.05;;;;;;;;;;5110697;28;20044;-71
2021/11/04 01:24:26;;;;;;;11.40;6.88;;;;;;;;;;5111064;28;20042;-71
2021/11/04 01:29:16;;;;;;;10.73;6.78;;;;;;;;;;5110962;27;20855;-71
2021/11/04 01:32:22;;;;;;;13.93;6.90;;;;;;;;;;5111618;27;20460;-73
2021/11/04 01:34:49;;;;;;;9.23;5.78;;;;;;;;;;5111147;28;20073;-73
2021/11/04 01:37:15;;;;;;;12.65;6.38;;;;;;;;;;5110683;28;20529;-73
2021/11/04 01:39:41;;;;;;;11.68;6.93;;;;;;;;;;5111075;28;20426;-73
2021/11/04 01:42:08;;;;;;;12.30;6.88;;;;;;;;;;5110975;28;20048;-73
2021/11/04 01:46:01;;;;;;;10.02;5.40;;;;;;;;;;5111208;27;21001;-72
2021/11/04 01:49:16;;;;;;;10.90;6.32;;;;;;;;;;5111162;27;20401;-70
2021/11/04 01:58:22;;;;;;;9.57;5.60;;;;;;;;;;5110690;27;20397;-72
2021/11/04 02:03:51;;;;;;;11.93;6.80;;;;;;;;;;5110959;27;20445;-71
2021/11/04 02:06:22;;;;;;;15.98;7.00;;;;;;;;;;5111147;28;20024;-72
2021/11/04 02:09:02;;;;;;;12.65;6.32;;;;;;;;;;5111212;28;20035;-72
2021/11/04 02:11:33;;;;;;;11.45;6.25;;;;;;;;;;5111013;28;20361;-72
2021/11/04 02:14:00;;;;;;;9.98;6.18;;;;;;;;;;5111136;28;20122;-72
2021/11/04 02:16:28;;;;;;;12.85;6.70;;;;;;;;;;5110895;28;20020;-72
2021/11/04 02:18:57;;;;;;;10.13;6.18;;;;;;;;;;5110423;28;20506;-73
2021/11/04 02:24:31;;;;;;;11.50;6.38;;;;;;;;;;5111542;27;20509;-71
2021/11/04 02:28:58;;;;;;;11.18;6.50;;;;;;;;;;5111106;27;20113;-71
2021/11/04 02:31:24;;;;;;;10.13;5.88;;;;;;;;;;5111033;28;20132;-70
2021/11/04 02:35:00;;;;;;;12.65;6.45;;;;;;;;;;5111853;27;20776;-70
2021/11/04 02:37:28;;;;;;;11.07;6.57;;;;;;;;;;5111079;28;20115;-71
2021/11/04 02:39:54;;;;;;;10.52;6.32;;;;;;;;;;5110881;28;20020;-70
2021/11/04 02:43:29;;;;;;;12.40;6.20;;;;;;;;;;5111091;27;20393;-73
2021/11/04 02:46:37;;;;;;;12.15;6.68;;;;;;;;;;5110684;27;20388;-73
2021/11/04 02:49:04;;;;;;;10.40;6.22;;;;;;;;;;5111333;28;20435;-72
2021/11/04 02:51:58;;;;;;;12.77;6.05;;;;;;;;;;5111135;27;20957;-71
2021/11/04 02:54:24;;;;;;;10.50;5.75;;;;;;;;;;5110948;28;20344;-71
2021/11/04 02:56:51;;;;;;;11.30;6.30;;;;;;;;;;5110868;28;20020;-71
2021/11/04 02:59:19;;;;;;;10.63;6.22;;;;;;;;;;5111119;28;20024;-71
2021/11/04 03:03:09;;;;;;;15.23;5.85;;;;;;;;;;5111481;27;20880;-71
2021/11/04 03:05:35;;;;;;;14.20;6.13;;;;;;;;;;5111003;28;20487;-71
2021/11/04 03:08:01;;;;;;;11.90;6.03;;;;;;;;;;5110642;28;20130;-71
2021/11/04 03:12:38;;;;;;;11.68;6.10;;;;;;;;;;5111355;27;20815;-71
2021/11/04 03:15:08;;;;;;;10.98;5.65;;;;;;;;;;5110634;28;20028;-71
2021/11/04 03:19:43;;;;;;;12.13;5.32;;;;;;;;;;5111073;27;20393;-70
2021/11/04 03:23:39;;;;;;;13.65;5.40;;;;;;;;;;5111421;27;20450;-72
2021/11/04 03:26:55;;;;;;;10.63;5.15;;;;;;;;;;5111149;27;20488;-71
2021/11/04 03:29:23;;;;;;;13.10;5.22;;;;;;;;;;5110658;28;20028;-71
2021/11/04 03:31:50;;;;;;;10.73;4.80;;;;;;;;;;5111287;28;20024;-71
2021/11/04 03:34:16;;;;;;;10.07;5.80;;;;;;;;;;5110938;28;20020;-71
2021/11/04 03:36:45;;;;;;;8.73;4.20;;;;;;;;;;5110497;28;20407;-71
2021/11/04 03:39:11;;;;;;;10.77;5.03;;;;;;;;;;5110662;28;20030;-71
2021/11/04 03:41:37;;;;;;;9.13;4.68;;;;;;;;;;5110735;28;20023;-70
2021/11/04 03:44:04;;;;;;;9.63;5.05;;;;;;;;;;5110251;28;20023;-73
2021/11/04 03:46:31;;;;;;;10.23;5.03;;;;;;;;;;5109407;28;20061;-71
2021/11/04 03:48:57;;;;;;;7.85;4.53;;;;;;;;;;5109336;28;20099;-71
2021/11/04 03:51:24;;;;;;;8.68;4.82;;;;;;;;;;5110165;28;20024;-71
2021/11/04 03:53:50;;;;;;;8.10;4.72;;;;;;;;;;5110527;28;20027;-71
2021/11/04 03:58:39;;;;;;;11.52;5.63;;;;;;;;;;5070408;28;20850;-73
2021/11/04 04:02:45;;;;;;;8.70;4.60;;;;;;;;;;5111421;27;20405;-73
2021/11/04 04:05:11;;;;;;;8.60;5.47;;;;;;;;;;5110764;28;20032;-73
2021/11/04 04:08:21;;;;;;;10.95;5.60;;;;;;;;;;5111478;27;20392;-73
2021/11/04 04:10:47;;;;;;;12.13;5.53;;;;;;;;;;5110646;28;20031;-73
2021/11/04 04:13:13;;;;;;;11.15;5.22;;;;;;;;;;5111022;28;20487;-73
2021/11/04 04:15:39;;;;;;;9.13;4.95;;;;;;;;;;5110998;28;20425;-73
2021/11/04 04:19:15;;;;;;;9.85;5.05;;;;;;;;;;5110797;27;20993;-71
2021/11/04 04:23:01;;;;;;;8.95;5.20;;;;;;;;;;5111392;27;20392;-70
2021/11/04 04:25:30;;;;;;;11.95;5.32;;;;;;;;;;5110791;28;20024;-70
2021/11/04 04:29:00;;;;;;;9.45;4.60;;;;;;;;;;5111652;27;20396;-70
2021/11/04 04:32:56;;;;;;;10.48;4.80;;;;;;;;;;5110955;27;20814;-69
2021/11/04 04:35:23;;;;;;;7.72;4.40;;;;;;;;;;5111384;28;20107;-71
2021/11/04 04:40:27;;;;;;;11.10;4.68;;;;;;;;;;5110785;27;20892;-70
2021/11/04 04:44:10;;;;;;;10.35;4.90;;;;;;;;;;5111825;27;20461;-70
2021/11/04 04:47:12;;;;;;;10.13;5.93;;;;;;;;;;5111006;27;20410;-73
2021/11/04 04:49:38;;;;;;;10.20;3.92;;;;;;;;;;5111141;28;20475;-73
2021/11/04 04:54:52;;;;;;;8.82;4.30;;;;;;;;;;5070809;28;20403;-73
2021/11/04 04:57:22;;;;;;;10.40;4.00;;;;;;;;;;5070577;28;20303;-72
2021/11/04 04:59:50;;;;;;;10.25;5.25;;;;;;;;;;5070102;28;20115;-71
2021/11/04 05:02:16;;;;;;;12.75;5.97;;;;;;;;;;5070355;28;20035;-71
2021/11/04 05:04:42;;;;;;;9.23;5.55;;;;;;;;;;5070405;28;20033;-71
2021/11/04 05:08:32;;;;;;;8.82;4.82;;;;;;;;;;5131145;27;20112;-72
2021/11/04 05:10:58;;;;;;;11.32;5.43;;;;;;;;;;5111017;28;20031;-71
2021/11/04 05:13:24;;;;;;;13.35;6.50;;;;;;;;;;5111033;28;20028;-71
2021/11/04 05:15:50;;;;;;;13.15;6.65;;;;;;;;;;5110574;28;20035;-74
2021/11/04 05:18:17;;;;;;;16.05;6.78;;;;;;;;;;5110921;28;20024;-73
2021/11/04 05:20:43;;;;;;;13.30;6.82;;;;;;;;;;5092164;28;20433;-71
2021/11/04 05:23:25;;;;;;;14.38;7.35;;;;;;;;;;5111765;27;20377;-72
2021/11/04 05:25:51;;;;;;;15.52;8.50;;;;;;;;;;5111113;28;20028;-71
2021/11/04 05:28:17;;;;;;;14.50;7.45;;;;;;;;;;5110518;28;20514;-71
2021/11/04 05:31:25;;;;;;;15.27;8.27;;;;;;;;;;5110932;27;20397;-73
2021/11/04 05:33:53;;;;;;;14.48;7.65;;;;;;;;;;5111155;28;20038;-73
2021/11/04 05:36:20;;;;;;;11.15;5.60;;;;;;;;;;5110794;28;20027;-73
2021/11/04 05:38:46;;;;;;;10.18;5.55;;;;;;;;;;5111012;28;20073;-73
2021/11/04 05:42:50;;;;;;;12.55;7.35;;;;;;;;;;5172197;27;20318;-72
2021/11/04 05:46:45;;;;;;;12.65;6.90;;;;;;;;;;5110879;27;20585;-72
2021/11/04 05:49:11;;;;;;;12.38;7.25;;;;;;;;;;5110787;28;20028;-71
2021/11/04 05:51:38;;;;;;;12.35;6.95;;;;;;;;;;5111130;28;20042;-74
2021/11/04 05:54:35;;;;;;;13.90;7.78;;;;;;;;;;5111719;27;20424;-73
2021/11/04 05:57:01;;;;;;;10.45;5.45;;;;;;;;;;5110694;28;20054;-71
2021/11/04 06:02:23;;;;;;;10.82;6.07;;;;;;;;;;5111615;27;20446;-71
2021/11/04 06:04:50;;;;;;;14.82;7.32;;;;;;;;;;5110213;28;20023;-71
2021/11/04 06:07:32;;;;;;;12.05;5.93;;;;;;;;;;5098646;27;20117;-72
2021/11/04 06:09:59;;;;;;;9.10;5.45;;;;;;;;;;5088860;28;20032;-70
2021/11/04 06:12:43;;;;;;;9.05;5.28;;;;;;;;;;5116467;27;20606;-71
2021/11/04 06:17:44;;;;;;;14.80;6.35;;;;;;;;;;5109510;27;20462;-69
2021/11/04 06:20:10;;;;;;;11.02;6.03;;;;;;;;;;5107936;28;20073;-72
2021/11/04 06:22:49;;;;;;;19.55;6.95;;;;;;;;;;5108837;27;20434;-71
2021/11/04 06:25:19;;;;;;;11.50;6.72;;;;;;;;;;5109319;28;20093;-71
2021/11/04 06:27:45;;;;;;;9.68;4.65;;;;;;;;;;5110283;28;20472;-69
2021/11/04 06:32:13;;;;;;;8.50;4.35;;;;;;;;;;5084719;28;20417;-70
2021/11/04 06:34:40;;;;;;;8.60;4.05;;;;;;;;;;5066861;28;20795;-73
2021/11/04 06:42:57;;;;;;;10.77;5.40;;;;;;;;;;5110233;27;20393;-70
2021/11/04 06:45:52;;;;;;;12.15;5.70;;;;;;;;;;5110008;27;20397;-71
2021/11/04 06:48:32;;;;;;;9.50;5.07;;;;;;;;;;5110281;28;20111;-71
2021/11/04 06:50:59;;;;;;;10.65;5.10;;;;;;;;;;5107403;28;20372;-70
2021/11/04 06:53:26;;;;;;;8.13;4.07;;;;;;;;;;5108395;28;20460;-70
2021/11/04 06:55:53;;;;;;;13.13;5.90;;;;;;;;;;5108420;28;20475;-71
2021/11/04 07:01:14;;;;;;;9.52;4.13;;;;;;;;;;5129075;27;20116;-67
2021/11/04 07:04:34;;;;;;;9.68;5.20;;;;;;;;;;5109812;27;20400;-70
2021/11/04 07:07:09;;;;;;;8.75;4.28;;;;;;;;;;5110077;28;20482;-72
2021/11/04 07:09:55;;;;;;;8.70;5.00;;;;;;;;;;5109815;27;20368;-70
2021/11/04 07:16:29;;;;;;;9.88;4.13;;;;;;;;;;5051400;28;20486;-70
2021/11/04 07:18:57;;;;;;;8.55;4.40;;;;;;;;;;5031138;28;20113;-71
2021/11/04 07:28:59;;;;;;;8.57;3.60;;;;;;;;;;5110304;27;20113;-71
2021/11/04 07:31:54;;;;;;;7.65;3.25;;;;;;;;;;5110571;27;20941;-70
2021/11/04 07:35:37;;;;;;;7.20;3.97;;;;;;;;;;5069019;28;20465;-68
2021/11/04 07:38:05;;;;;;;6.20;3.63;;;;;;;;;;5068486;28;20033;-70
2021/11/04 07:40:31;;;;;;;12.48;5.00;;;;;;;;;;5067795;28;20036;-71
2021/11/04 07:42:58;;;;;;;8.68;4.05;;;;;;;;;;5066011;28;20021;-69
2021/11/04 07:45:24;;;;;;;9.90;4.68;;;;;;;;;;5068577;28;20499;-70
2021/11/04 07:49:54;;;;;;;22.90;9.95;;;;;;;;;;5109567;27;20388;-72
2021/11/04 07:57:02;;;;;;;16.33;8.30;;;;;;;;;;5106788;27;20388;-71
2021/11/04 08:00:59;;;;;;;14.98;7.07;;;;;;;;;;5108650;27;20458;-72
2021/11/04 08:05:10;;;;;;;7.13;3.85;;;;;;;;;;5106440;27;20393;-70
2021/11/04 08:07:37;;;;;;;8.13;4.13;;;;;;;;;;5101825;28;20019;-70
2021/11/04 08:10:07;;;;;;;6.75;3.80;;;;;;;;;;5107438;28;20356;-71
2021/11/04 08:14:26;;;;;;;6.85;3.13;;;;;;;;;;5108980;27;20446;-69
2021/11/04 08:16:53;;;;;;;9.77;4.57;;;;;;;;;;5108998;28;20081;-68
2021/11/04 08:19:50;;;;;;;9.32;4.00;;;;;;;;;;5108584;27;21114;-69
2021/11/04 08:22:17;;;;;;;8.18;4.20;;;;;;;;;;5109356;28;20570;-70
2021/11/04 08:24:44;;;;;;;8.68;3.80;;;;;;;;;;5106685;28;20512;-70
2021/11/04 08:29:21;;;;;;;6.70;3.28;;;;;;;;;;5107436;27;20392;-69
2021/11/04 08:31:47;;;;;;;10.32;5.53;;;;;;;;;;5107084;28;20104;-68
2021/11/04 08:34:14;;;;;;;7.63;3.90;;;;;;;;;;5107496;28;20027;-69
2021/11/04 08:36:40;;;;;;;7.78;3.78;;;;;;;;;;5106701;28;20115;-71
2021/11/04 08:39:06;;;;;;;10.05;3.83;;;;;;;;;;5105741;28;20031;-68
2021/11/04 08:41:32;;;;;;;6.93;3.22;;;;;;;;;;5106167;28;20395;-69
2021/11/04 08:43:59;;;;;;;12.90;5.18;;;;;;;;;;5107380;28;20028;-69
2021/11/04 08:46:37;;;;;;;22.65;12.10;;;;;;;;;;5108025;27;20787;-69
2021/11/04 08:49:17;;;;;;;12.23;5.53;;;;;;;;;;5109079;27;20469;-69
2021/11/04 08:51:44;;;;;;;14.88;6.13;;;;;;;;;;5107351;28;20130;-71
2021/11/04 08:54:10;;;;;;;7.38;3.80;;;;;;;;;;5102595;28;20020;-68
2021/11/04 08:56:37;;;;;;;8.23;4.25;;;;;;;;;;5106602;28;20500;-69
2021/11/04 08:59:04;;;;;;;9.27;4.68;;;;;;;;;;5108707;28;20024;-69
2021/11/04 09:01:30;;;;;;;11.02;4.28;;;;;;;;;;5106492;28;20024;-69
2021/11/04 09:06:12;;;;;;;9.40;5.07;;;;;;;;;;5066732;28;20725;-68
2021/11/04 09:08:38;;;;;;;12.15;6.05;;;;;;;;;;5066226;28;20108;-69
2021/11/04 09:11:04;;;;;;;8.95;4.82;;;;;;;;;;5069286;28;20025;-69
2021/11/04 09:13:30;;;;;;;8.68;4.65;;;;;;;;;;5068183;28;20029;-69
2021/11/04 09:15:56;;;;;;;17.15;7.95;;;;;;;;;;5066984;28;20096;-70
2021/11/04 09:20:36;;;;;;;48.85;16.67;;;;;;;;;;5065490;28;20945;-71
2021/11/04 09:23:03;;;;;;;26.63;11.93;;;;;;;;;;5066585;28;20029;-70
2021/11/04 09:25:29;;;;;;;16.58;8.13;;;;;;;;;;5064380;28;20032;-70
2021/11/04 09:29:46;;;;;;;10.32;5.07;;;;;;;;;;5108706;27;20745;-68
2021/11/04 09:32:53;;;;;;;7.80;4.18;;;;;;;;;;5088520;27;20460;-67
2021/11/04 09:35:20;;;;;;;13.50;5.15;;;;;;;;;;5087306;28;20076;-68
2021/11/04 09:39:52;;;;;;;8.13;4.28;;;;;;;;;;5027655;28;20460;-68
2021/11/04 09:42:18;;;;;;;10.10;4.57;;;;;;;;;;5029314;28;20032;-72
2021/11/04 09:48:59;;;;;;;7.80;4.50;;;;;;;;;;5109221;27;20461;-71
2021/11/04 09:51:25;;;;;;;9.23;4.72;;;;;;;;;;5108476;28;20034;-72
2021/11/04 09:53:52;;;;;;;8.15;3.90;;;;;;;;;;5109442;28;20049;-72
2021/11/04 09:57:10;;;;;;;8.27;3.92;;;;;;;;;;5045429;28;20816;-71
2021/11/04 09:59:36;;;;;;;9.48;3.90;;;;;;;;;;5040920;28;20047;-71
2021/11/04 10:02:14;;;;;;;8.20;3.47;;;;;;;;;;5041258;28;20433;-70
2021/11/04 10:04:43;;;;;;;7.93;3.88;;;;;;;;;;5044286;28;20576;-69
2021/11/04 10:07:10;;;;;;;8.10;3.67;;;;;;;;;;5045562;28;20021;-72
2021/11/04 10:09:36;;;;;;;7.72;3.67;;;;;;;;;;5045782;28;20025;-70
2021/11/04 10:12:06;;;;;;;9.43;3.55;;;;;;;;;;5047144;28;20013;-71
2021/11/04 10:16:30;;;;;;;5.90;3.30;;;;;;;;;;5108774;27;20466;-70
2021/11/04 10:18:58;;;;;;;9.75;3.22;;;;;;;;;;5109115;28;20065;-71
2021/11/04 10:21:27;;;;;;;6.55;3.35;;;;;;;;;;5109034;28;20016;-69
2021/11/04 10:25:26;;;;;;;7.40;3.78;;;;;;;;;;5106679;27;20392;-68
2021/11/04 10:27:53;;;;;;;7.82;3.50;;;;;;;;;;5122372;28;20020;-68
2021/11/04 10:30:40;;;;;;;8.10;3.22;;;;;;;;;;5128305;28;20326;-68
2021/11/04 10:33:22;;;;;;;7.95;3.75;;;;;;;;;;5128328;28;20102;-70
2021/11/04 10:35:53;;;;;;;7.25;3.40;;;;;;;;;;5127534;28;20071;-69
2021/11/04 10:38:19;;;;;;;6.95;3.08;;;;;;;;;;5122266;28;20023;-69
2021/11/04 10:42:52;;;;;;;8.68;2.85;;;;;;;;;;5108866;27;20388;-69
2021/11/04 10:45:19;;;;;;;6.30;3.63;;;;;;;;;;5107515;28;20034;-69
2021/11/04 10:47:45;;;;;;;7.22;3.83;;;;;;;;;;5121401;28;20030;-69
2021/11/04 10:50:11;;;;;;;13.30;5.80;;;;;;;;;;5129883;28;20080;-69
2021/11/04 10:52:38;;;;;;;18.05;8.35;;;;;;;;;;5114380;28;20059;-69
2021/11/04 11:00:52;;;;;;;9.52;4.40;;;;;;;;;;5108244;27;20450;-69
2021/11/04 11:03:18;;;;;;;8.38;3.83;;;;;;;;;;5107472;28;20019;-71
2021/11/04 11:07:16;;;;;;;8.55;4.00;;;;;;;;;;5108844;27;20385;-72
2021/11/04 11:09:43;;;;;;;7.32;3.88;;;;;;;;;;5109209;28;20061;-69
2021/11/04 11:12:09;;;;;;;8.68;4.60;;;;;;;;;;5108210;28;20028;-72
2021/11/04 11:14:40;;;;;;;12.27;5.35;;;;;;;;;;5109560;28;20536;-73
2021/11/04 11:17:07;;;;;;;9.57;4.95;;;;;;;;;;5109659;28;20059;-71
2021/11/04 11:19:39;;;;;;;8.85;5.30;;;;;;;;;;5109422;28;20028;-70
2021/11/04 11:22:06;;;;;;;8.32;4.35;;;;;;;;;;5108273;28;20035;-71
2021/11/04 11:24:37;;;;;;;6.60;3.83;;;;;;;;;;5108070;28;20102;-71
2021/11/04 11:27:05;;;;;;;6.85;3.47;;;;;;;;;;5104142;28;21672;-70
2021/11/04 11:29:32;;;;;;;7.53;4.47;;;;;;;;;;5109658;28;20024;-70
2021/11/04 11:35:14;;;;;;;12.57;4.13;;;;;;;;;;5150224;27;20424;-68
2021/11/04 11:37:56;;;;;;;10.63;4.95;;;;;;;;;;5151060;27;20031;-67
2021/11/04 11:40:23;;;;;;;9.77;4.60;;;;;;;;;;5148139;27;20042;-67
2021/11/04 11:43:10;;;;;;;9.80;4.82;;;;;;;;;;5147621;27;20053;-67
2021/11/04 11:45:38;;;;;;;10.65;4.03;;;;;;;;;;5148526;27;20076;-69
2021/11/04 11:48:24;;;;;;;10.48;3.53;;;;;;;;;;5148634;27;20030;-67
2021/11/04 11:50:52;;;;;;;12.20;5.63;;;;;;;;;;5149651;27;20419;-66
2021/11/04 11:53:40;;;;;;;12.38;5.57;;;;;;;;;;5149035;27;20027;-66
2021/11/04 11:56:07;;;;;;;22.58;12.13;;;;;;;;;;5150462;27;20019;-67
2021/11/04 11:59:18;;;;;;;18.20;8.82;;;;;;;;;;5110679;27;20462;-68
2021/11/04 12:01:49;;;;;;;17.05;9.00;;;;;;;;;;5109765;28;20020;-69
2021/11/04 12:04:27;;;;;;;16.20;8.55;;;;;;;;;;5109884;28;20032;-67
2021/11/04 12:06:54;;;;;;;8.82;4.68;;;;;;;;;;5110291;28;20109;-69
2021/11/04 12:09:37;;;;;;;14.93;4.78;;;;;;;;;;5107451;28;20024;-69
2021/11/04 12:12:04;;;;;;;11.90;6.82;;;;;;;;;;5110563;28;20478;-69
2021/11/04 12:14:31;;;;;;;19.75;8.13;;;;;;;;;;5109377;28;20160;-69
2021/11/04 12:17:00;;;;;;;10.88;5.38;;;;;;;;;;5109156;28;20023;-68
2021/11/04 12:20:16;;;;;;;12.00;4.60;;;;;;;;;;5110169;27;20442;-68
2021/11/04 12:22:42;;;;;;;10.90;4.30;;;;;;;;;;5110027;28;20119;-67
2021/11/04 12:25:11;;;;;;;22.05;7.18;;;;;;;;;;5108693;28;20051;-67
2021/11/04 12:27:46;;;;;;;10.07;4.93;;;;;;;;;;5109431;28;20069;-68
2021/11/04 12:30:15;;;;;;;11.27;5.65;;;;;;;;;;5109869;28;20050;-67
2021/11/04 12:32:41;;;;;;;13.18;6.03;;;;;;;;;;5110568;28;20031;-70
2021/11/04 12:35:07;;;;;;;12.00;4.85;;;;;;;;;;5110387;28;20475;-69
2021/11/04 12:40:09;;;;;;;9.68;5.93;;;;;;;;;;5110533;27;20458;-66
2021/11/04 12:42:35;;;;;;;6.72;3.42;;;;;;;;;;5107435;28;20032;-71
2021/11/04 12:45:01;;;;;;;10.85;4.35;;;;;;;;;;5110195;28;20030;-71
2021/11/04 12:47:28;;;;;;;7.15;3.47;;;;;;;;;;5110405;28;20028;-71
2021/11/04 12:49:55;;;;;;;10.52;3.88;;;;;;;;;;5109272;28;20471;-69
2021/11/04 12:52:22;;;;;;;10.05;3.80;;;;;;;;;;5109735;28;20388;-71
2021/11/04 12:54:53;;;;;;;9.18;4.13;;;;;;;;;;5109135;28;20361;-69
2021/11/04 12:57:27;;;;;;;7.10;4.20;;;;;;;;;;5108602;28;20102;-70
2021/11/04 12:59:59;;;;;;;10.77;4.35;;;;;;;;;;5106631;28;20111;-71
2021/11/04 13:02:28;;;;;;;11.55;4.30;;;;;;;;;;5107515;28;20044;-72
2021/11/04 13:05:16;;;;;;;7.50;3.80;;;;;;;;;;5109555;27;20935;-70
2021/11/04 13:07:45;;;;;;;8.80;3.92;;;;;;;;;;5110289;28;20142;-71
2021/11/04 13:10:16;;;;;;;7.40;3.67;;;;;;;;;;5109787;28;20035;-69
2021/11/04 13:12:46;;;;;;;7.43;3.70;;;;;;;;;;5109994;28;20380;-70
2021/11/04 13:15:14;;;;;;;8.65;3.58;;;;;;;;;;5110265;28;20027;-71
2021/11/04 13:17:54;;;;;;;8.85;4.00;;;;;;;;;;5110387;28;20024;-72
2021/11/04 13:20:33;;;;;;;8.27;4.05;;;;;;;;;;5109843;28;20012;-70
2021/11/04 13:23:08;;;;;;;6.53;3.10;;;;;;;;;;5108763;28;20024;-71
2021/11/04 13:25:39;;;;;;;7.82;3.30;;;;;;;;;;5109801;28;20034;-71
2021/11/04 13:28:07;;;;;;;11.02;3.70;;;;;;;;;;5109587;28;20073;-71
2021/11/04 13:30:43;;;;;;;7.68;3.72;;;;;;;;;;5109446;28;20028;-71
2021/11/04 13:33:10;;;;;;;8.18;4.35;;;;;;;;;;5107814;28;20080;-71
2021/11/04 13:35:37;;;;;;;12.73;5.03;;;;;;;;;;5108204;28;20058;-72
2021/11/04 13:38:06;;;;;;;12.70;6.10;;;;;;;;;;5109442;28;20539;-70
2021/11/04 13:40:41;;;;;;;11.82;6.45;;;;;;;;;;5109151;28;20024;-72
2021/11/04 13:44:43;;;;;;;12.35;5.72;;;;;;;;;;5110317;27;20454;-70
2021/11/04 13:47:09;;;;;;;10.95;4.85;;;;;;;;;;5110284;28;20107;-69
2021/11/04 13:49:35;;;;;;;16.17;7.57;;;;;;;;;;5101647;28;20038;-70
2021/11/04 13:52:01;;;;;;;16.77;6.65;;;;;;;;;;5107314;28;20492;-72
2021/11/04 13:54:29;;;;;;;15.50;5.68;;;;;;;;;;5110539;28;20020;-71
2021/11/04 13:57:08;;;;;;;14.93;7.70;;;;;;;;;;5112322;28;20099;-70
2021/11/04 13:59:42;;;;;;;17.30;8.13;;;;;;;;;;5131071;28;20474;-71
2021/11/04 14:02:12;;;;;;;21.13;8.77;;;;;;;;;;5128104;28;20095;-70
2021/11/04 14:04:52;;;;;;;19.17;9.95;;;;;;;;;;5130202;28;20043;-70
2021/11/04 14:07:34;;;;;;;14.10;6.38;;;;;;;;;;5130649;28;20135;-70
2021/11/04 14:10:08;;;;;;;8.70;4.50;;;;;;;;;;5129964;28;20072;-71
2021/11/04 14:12:35;;;;;;;11.07;4.75;;;;;;;;;;5131133;28;20024;-70
2021/11/04 14:15:09;;;;;;;10.98;4.90;;;;;;;;;;5130856;28;20028;-70
2021/11/04 14:17:49;;;;;;;10.85;5.55;;;;;;;;;;5129129;28;20090;-71
2021/11/04 14:21:38;;;;;;;13.85;5.88;;;;;;;;;;5110748;27;20389;-70
2021/11/04 14:24:05;;;;;;;9.75;5.10;;;;;;;;;;5110740;28;20063;-71
2021/11/04 14:26:36;;;;;;;11.25;5.35;;;;;;;;;;5111105;28;20118;-70
2021/11/04 14:29:04;;;;;;;9.88;5.07;;;;;;;;;;5111273;28;20053;-70
2021/11/04 14:33:35;;;;;;;10.98;5.68;;;;;;;;;;5111138;27;20461;-70
2021/11/04 14:36:51;;;;;;;13.10;6.93;;;;;;;;;;5110865;27;20923;-70
2021/11/04 14:39:18;;;;;;;19.08;9.10;;;;;;;;;;5111075;28;20032;-69
2021/11/04 14:43:57;;;;;;;19.70;10.60;;;;;;;;;;5131037;27;20112;-70
2021/11/04 14:46:23;;;;;;;20.13;8.57;;;;;;;;;;5110885;28;20502;-69
2021/11/04 14:48:49;;;;;;;25.83;12.90;;;;;;;;;;5110845;28;20544;-69
2021/11/04 14:53:17;;;;;;;19.50;9.23;;;;;;;;;;5111446;27;20847;-68
2021/11/04 14:55:44;;;;;;;19.73;10.55;;;;;;;;;;5110830;28;20085;-70
2021/11/04 14:58:10;;;;;;;27.25;16.25;;;;;;;;;;5110731;28;20022;-68
2021/11/04 15:00:39;;;;;;;29.17;15.38;;;;;;;;;;5110760;28;20020;-69
2021/11/04 15:03:05;;;;;;;23.80;14.60;;;;;;;;;;5110807;28;20057;-70
2021/11/04 15:06:21;;;;;;;24.40;12.52;;;;;;;;;;5110733;27;20396;-70
2021/11/04 15:08:47;;;;;;;22.38;11.73;;;;;;;;;;5111201;28;20388;-70
2021/11/04 15:12:49;;;;;;;20.75;9.52;;;;;;;;;;5110872;27;20900;-71
2021/11/04 15:15:16;;;;;;;17.52;9.25;;;;;;;;;;5110862;28;20031;-69
2021/11/04 15:17:42;;;;;;;13.10;7.72;;;;;;;;;;5110794;28;20020;-72
2021/11/04 15:21:38;;;;;;;15.95;11.13;;;;;;;;;;5110966;27;20454;-69
2021/11/04 15:24:04;;;;;;;18.77;9.45;;;;;;;;;;5110988;28;20027;-68
2021/11/04 15:28:04;;;;;;;22.25;11.95;;;;;;;;;;5131966;27;20108;-67
2021/11/04 15:30:49;;;;;;;18.00;10.27;;;;;;;;;;5111004;27;20466;-69
2021/11/04 15:34:13;;;;;;;20.60;13.48;;;;;;;;;;5110931;27;20454;-70
2021/11/04 15:40:01;;;;;;;19.65;11.30;;;;;;;;;;5111240;27;20466;-69
2021/11/04 15:42:27;;;;;;;17.63;11.73;;;;;;;;;;5110829;28;20032;-70
2021/11/04 15:46:05;;;;;;;13.65;7.50;;;;;;;;;;5111228;27;20113;-70
2021/11/04 15:48:32;;;;;;;17.85;8.40;;;;;;;;;;5110519;28;20088;-71
2021/11/04 15:51:00;;;;;;;13.93;8.63;;;;;;;;;;5111126;28;20035;-71
2021/11/04 15:56:14;;;;;;;27.88;15.40;;;;;;;;;;5111463;27;20454;-69
2021/11/04 15:58:41;;;;;;;19.10;13.25;;;;;;;;;;5110982;28;20480;-71
2021/11/04 16:01:07;;;;;;;16.55;11.20;;;;;;;;;;5110526;28;20024;-68
2021/11/04 16:03:33;;;;;;;20.63;11.93;;;;;;;;;;5110948;28;20383;-70
2021/11/04 16:06:00;;;;;;;20.92;11.40;;;;;;;;;;5110944;28;20376;-71
2021/11/04 16:08:26;;;;;;;20.20;10.40;;;;;;;;;;5110577;28;20028;-70
2021/11/04 16:10:53;;;;;;;20.45;10.90;;;;;;;;;;5110798;28;20046;-69
2021/11/04 16:16:26;;;;;;;16.08;9.00;;;;;;;;;;5070279;28;20503;-70
2021/11/04 16:18:53;;;;;;;14.40;8.63;;;;;;;;;;5070462;28;20032;-71
2021/11/04 16:22:57;;;;;;;14.30;8.07;;;;;;;;;;5110747;27;20588;-69
2021/11/04 16:26:06;;;;;;;14.00;8.93;;;;;;;;;;5111036;27;20119;-71
2021/11/04 16:29:37;;;;;;;25.77;15.93;;;;;;;;;;5110735;27;20393;-70
2021/11/04 16:32:04;;;;;;;25.35;18.17;;;;;;;;;;5111065;28;20084;-70
2021/11/04 16:34:30;;;;;;;20.83;9.57;;;;;;;;;;5110950;28;20055;-70
2021/11/04 16:37:03;;;;;;;12.30;7.85;;;;;;;;;;5110611;28;20020;-71
2021/11/04 16:39:29;;;;;;;17.88;11.02;;;;;;;;;;5111002;28;20031;-74
2021/11/04 16:41:56;;;;;;;23.63;15.48;;;;;;;;;;5111016;28;20051;-72
2021/11/04 16:44:26;;;;;;;17.17;9.05;;;;;;;;;;5110602;28;20062;-72
2021/11/04 16:46:52;;;;;;;17.25;8.85;;;;;;;;;;5110763;28;20031;-73
2021/11/04 16:49:19;;;;;;;13.50;7.90;;;;;;;;;;5110782;28;20035;-72
2021/11/04 16:51:45;;;;;;;15.50;8.07;;;;;;;;;;5110282;28;20495;-71
2021/11/04 16:56:33;;;;;;;15.90;9.80;;;;;;;;;;5111467;27;20797;-69
2021/11/04 16:59:19;;;;;;;13.05;7.65;;;;;;;;;;5110763;27;20438;-70
2021/11/04 17:01:45;;;;;;;20.42;7.88;;;;;;;;;;5109647;28;20024;-70
2021/11/04 17:05:14;;;;;;;15.27;7.82;;;;;;;;;;5110785;27;20838;-69
2021/11/04 17:07:41;;;;;;;14.10;7.75;;;;;;;;;;5111033;28;20027;-70
2021/11/04 17:10:07;;;;;;;12.75;7.30;;;;;;;;;;5111114;28;20095;-69
2021/11/04 17:12:34;;;;;;;15.02;8.02;;;;;;;;;;5110310;28;20047;-68
2021/11/04 17:15:00;;;;;;;18.08;8.50;;;;;;;;;;5110676;28;20504;-69
2021/11/04 17:19:34;;;;;;;20.13;9.10;;;;;;;;;;5110647;27;20839;-69
2021/11/04 17:22:00;;;;;;;14.95;8.65;;;;;;;;;;5110909;28;20483;-69
2021/11/04 17:24:27;;;;;;;14.60;9.00;;;;;;;;;;5110851;28;20031;-69
2021/11/04 17:27:31;;;;;;;20.17;9.75;;;;;;;;;;5110912;27;20401;-70
2021/11/04 17:29:59;;;;;;;16.95;8.82;;;;;;;;;;5111016;28;20028;-70
2021/11/04 17:32:25;;;;;;;17.15;8.80;;;;;;;;;;5110657;28;20035;-70
2021/11/04 17:34:52;;;;;;;13.55;7.50;;;;;;;;;;5111200;28;20026;-71
2021/11/04 17:37:52;;;;;;;15.85;8.77;;;;;;;;;;5111128;27;20384;-69
2021/11/04 17:40:19;;;;;;;20.35;9.45;;;;;;;;;;5110446;28;20030;-68
2021/11/04 17:42:45;;;;;;;20.02;9.85;;;;;;;;;;5110788;28;20020;-69
2021/11/04 17:46:03;;;;;;;27.95;13.32;;;;;;;;;;5111005;27;20442;-70
2021/11/04 17:48:29;;;;;;;22.00;10.63;;;;;;;;;;5110743;28;20044;-70
2021/11/04 17:50:58;;;;;;;29.88;12.52;;;;;;;;;;5111097;28;20384;-71
2021/11/04 17:53:25;;;;;;;16.77;9.02;;;;;;;;;;5110689;28;20028;-72